This is the latest recevied weather packets stored in our database for station/object JH7UAX-10. If no packets are shown the sender has not sent any weather packets the latest 1 day(s).
| Time | Temp. | Humidity | Pressure | Rain* | Wind** | Luminosity | Snow |
|---|---|---|---|---|---|---|---|
| 1778085006 | 10° C | 83% | 1027.7 hPa | 0 mm | - | - | - |
| 1778084578 | 10° C | 82% | 1027.8 hPa | 0 mm | - | - | - |
| 1778081877 | 11.11° C | 79% | 1027.8 hPa | 0 mm | - | - | - |
| 1778081405 | 11.11° C | 79% | 1027.8 hPa | 0 mm | - | - | - |
| 1778080079 | 11.11° C | 79% | 1028.1 hPa | 0 mm | - | - | - |
| 1778078704 | 11.67° C | 79% | 1028 hPa | 0 mm | - | - | - |
| 1778078278 | 11.67° C | 79% | 1028 hPa | 0 mm | - | - | - |
| 1778074677 | 12.22° C | 76% | 1027.8 hPa | 0 mm | - | - | - |
| 1778074205 | 12.22° C | 76% | 1027.7 hPa | 0 mm | - | - | - |
| 1778072879 | 12.22° C | 78% | 1027.6 hPa | 0 mm | - | - | - |
| 1778069280 | 13.33° C | 73% | 1028.2 hPa | 0 mm | - | - | - |
| 1778068806 | 13.89° C | 71% | 1028.3 hPa | 0 mm | - | - | - |
| 1778067005 | 14.44° C | 70% | 1028.4 hPa | 0 mm | - | - | - |
| 1778065679 | 15° C | 70% | 1028.5 hPa | 0 mm | - | - | - |
| 1778063880 | 16.11° C | 66% | 1028.4 hPa | 0 mm | - | - | - |
| 1778062980 | 16.11° C | 65% | 1028.4 hPa | 0 mm | - | - | - |
| 1778060705 | 17.22° C | 63% | 1028.3 hPa | 0 mm | - | - | - |
| 1778060279 | 17.22° C | 62% | 1028.3 hPa | 0 mm | - | - | - |
| 1778059807 | 17.78° C | 60% | 1028.4 hPa | 0 mm | - | - | - |
| 1778059379 | 17.78° C | 60% | 1028.4 hPa | 0 mm | - | - | - |
| 1778056678 | 19.44° C | 56% | 1028.5 hPa | 0 mm | - | - | - |
| 1778056206 | 19.44° C | 54% | 1028.5 hPa | 0 mm | - | - | - |
| 1778055780 | 19.44° C | 54% | 1028.5 hPa | 0 mm | - | - | - |
| 1778053079 | 21.11° C | 48% | 1028.4 hPa | 0 mm | - | - | - |
| 1778052605 | 21.11° C | 49% | 1028.5 hPa | 0 mm | - | - | - |
* Rain latest hour (hover to see other rain measurements)
** Current wind speed in m/s (hover to see current wind gust speed)